sensor_id;sensor_type;location;lat;lon;timestamp;temperature;humidity
44047;DHT22;29713;-33.888;151.150;2023-06-10T00:01:46;14.10;99.90
44047;DHT22;29713;-33.888;151.150;2023-06-10T00:04:16;14.30;99.90
44047;DHT22;29713;-33.888;151.150;2023-06-10T00:06:47;14.40;99.90
44047;DHT22;29713;-33.888;151.150;2023-06-10T00:09:16;14.50;99.90
44047;DHT22;29713;-33.888;151.150;2023-06-10T00:11:45;14.50;99.90
44047;DHT22;29713;-33.888;151.150;2023-06-10T00:14:12;14.60;99.90
44047;DHT22;29713;-33.888;151.150;2023-06-10T00:16:39;14.70;99.90
44047;DHT22;29713;-33.888;151.150;2023-06-10T00:19:07;14.80;99.90
44047;DHT22;29713;-33.888;151.150;2023-06-10T00:21:35;15.00;99.90
44047;DHT22;29713;-33.888;151.150;2023-06-10T00:24:07;15.10;99.90
44047;DHT22;29713;-33.888;151.150;2023-06-10T00:26:40;15.30;99.90
44047;DHT22;29713;-33.888;151.150;2023-06-10T00:29:08;15.40;99.90
44047;DHT22;29713;-33.888;151.150;2023-06-10T00:31:37;15.50;99.90
44047;DHT22;29713;-33.888;151.150;2023-06-10T00:34:05;15.60;99.90
44047;DHT22;29713;-33.888;151.150;2023-06-10T00:36:32;15.60;99.90
44047;DHT22;29713;-33.888;151.150;2023-06-10T00:39:00;15.80;99.90
44047;DHT22;29713;-33.888;151.150;2023-06-10T00:41:27;15.80;99.90
44047;DHT22;29713;-33.888;151.150;2023-06-10T00:43:54;16.00;99.90
44047;DHT22;29713;-33.888;151.150;2023-06-10T00:46:22;16.00;99.90
44047;DHT22;29713;-33.888;151.150;2023-06-10T00:48:50;16.10;99.90
44047;DHT22;29713;-33.888;151.150;2023-06-10T00:51:19;16.20;99.90
44047;DHT22;29713;-33.888;151.150;2023-06-10T00:53:46;16.40;99.90
44047;DHT22;29713;-33.888;151.150;2023-06-10T00:56:14;16.50;99.90
44047;DHT22;29713;-33.888;151.150;2023-06-10T00:58:42;16.50;99.90
44047;DHT22;29713;-33.888;151.150;2023-06-10T01:01:10;16.70;99.90
44047;DHT22;29713;-33.888;151.150;2023-06-10T01:03:38;16.70;99.90
44047;DHT22;29713;-33.888;151.150;2023-06-10T01:09:23;17.00;99.90
44047;DHT22;29713;-33.888;151.150;2023-06-10T01:14:41;17.30;99.90
44047;DHT22;29713;-33.888;151.150;2023-06-10T01:17:12;17.30;99.90
44047;DHT22;29713;-33.888;151.150;2023-06-10T01:19:39;17.30;99.90
44047;DHT22;29713;-33.888;151.150;2023-06-10T01:22:07;17.30;99.90
44047;DHT22;29713;-33.888;151.150;2023-06-10T01:24:34;17.40;99.90
44047;DHT22;29713;-33.888;151.150;2023-06-10T01:27:08;17.50;99.90
44047;DHT22;29713;-33.888;151.150;2023-06-10T01:29:41;17.70;99.90
44047;DHT22;29713;-33.888;151.150;2023-06-10T01:32:27;17.70;99.90
44047;DHT22;29713;-33.888;151.150;2023-06-10T01:34:56;17.70;99.90
44047;DHT22;29713;-33.888;151.150;2023-06-10T01:37:25;17.90;99.90
44047;DHT22;29713;-33.888;151.150;2023-06-10T01:39:55;18.00;99.90
44047;DHT22;29713;-33.888;151.150;2023-06-10T01:42:24;18.20;99.90
44047;DHT22;29713;-33.888;151.150;2023-06-10T01:44:52;18.30;99.90
44047;DHT22;29713;-33.888;151.150;2023-06-10T01:47:19;18.40;99.90
44047;DHT22;29713;-33.888;151.150;2023-06-10T01:49:47;18.60;99.90
44047;DHT22;29713;-33.888;151.150;2023-06-10T01:52:14;18.80;99.90
44047;DHT22;29713;-33.888;151.150;2023-06-10T01:54:42;18.90;99.90
44047;DHT22;29713;-33.888;151.150;2023-06-10T01:57:09;19.10;99.90
44047;DHT22;29713;-33.888;151.150;2023-06-10T01:59:37;19.10;99.90
44047;DHT22;29713;-33.888;151.150;2023-06-10T02:02:05;19.10;99.90
44047;DHT22;29713;-33.888;151.150;2023-06-10T02:04:32;19.50;99.90
44047;DHT22;29713;-33.888;151.150;2023-06-10T02:07:00;19.90;99.90
44047;DHT22;29713;-33.888;151.150;2023-06-10T02:09:31;19.90;99.90
44047;DHT22;29713;-33.888;151.150;2023-06-10T02:12:04;20.10;99.90
44047;DHT22;29713;-33.888;151.150;2023-06-10T02:14:33;20.40;99.90
44047;DHT22;29713;-33.888;151.150;2023-06-10T02:17:00;20.70;99.90
44047;DHT22;29713;-33.888;151.150;2023-06-10T02:19:28;20.70;99.90
44047;DHT22;29713;-33.888;151.150;2023-06-10T02:21:55;20.70;99.90
44047;DHT22;29713;-33.888;151.150;2023-06-10T02:24:22;20.70;99.90
44047;DHT22;29713;-33.888;151.150;2023-06-10T02:26:50;20.50;99.90
44047;DHT22;29713;-33.888;151.150;2023-06-10T02:29:18;20.40;99.90
44047;DHT22;29713;-33.888;151.150;2023-06-10T02:31:46;20.60;99.90
44047;DHT22;29713;-33.888;151.150;2023-06-10T02:34:14;21.00;99.90
44047;DHT22;29713;-33.888;151.150;2023-06-10T02:36:42;20.90;99.90
44047;DHT22;29713;-33.888;151.150;2023-06-10T02:39:09;20.70;99.90
44047;DHT22;29713;-33.888;151.150;2023-06-10T02:41:36;21.10;99.90
44047;DHT22;29713;-33.888;151.150;2023-06-10T02:44:04;21.30;99.90
44047;DHT22;29713;-33.888;151.150;2023-06-10T02:46:31;21.50;99.90
44047;DHT22;29713;-33.888;151.150;2023-06-10T02:48:59;21.90;99.90
44047;DHT22;29713;-33.888;151.150;2023-06-10T02:51:27;21.90;99.50
44047;DHT22;29713;-33.888;151.150;2023-06-10T02:53:54;21.50;96.90
44047;DHT22;29713;-33.888;151.150;2023-06-10T02:56:21;21.20;96.00
44047;DHT22;29713;-33.888;151.150;2023-06-10T02:58:49;21.30;96.90
44047;DHT22;29713;-33.888;151.150;2023-06-10T03:01:18;21.30;98.10
44047;DHT22;29713;-33.888;151.150;2023-06-10T03:03:48;21.50;99.40
44047;DHT22;29713;-33.888;151.150;2023-06-10T03:06:17;21.60;97.90
44047;DHT22;29713;-33.888;151.150;2023-06-10T03:08:44;21.90;98.20
44047;DHT22;29713;-33.888;151.150;2023-06-10T03:11:14;22.00;97.40
44047;DHT22;29713;-33.888;151.150;2023-06-10T03:13:41;22.10;97.00
44047;DHT22;29713;-33.888;151.150;2023-06-10T03:16:09;22.00;96.90
44047;DHT22;29713;-33.888;151.150;2023-06-10T03:18:38;22.20;98.60
44047;DHT22;29713;-33.888;151.150;2023-06-10T03:21:06;22.40;97.60
44047;DHT22;29713;-33.888;151.150;2023-06-10T03:23:35;22.60;99.50
44047;DHT22;29713;-33.888;151.150;2023-06-10T03:26:03;22.50;97.90
44047;DHT22;29713;-33.888;151.150;2023-06-10T03:28:31;22.60;96.80
44047;DHT22;29713;-33.888;151.150;2023-06-10T03:30:59;22.50;95.40
44047;DHT22;29713;-33.888;151.150;2023-06-10T03:33:26;22.30;95.30
44047;DHT22;29713;-33.888;151.150;2023-06-10T03:35:53;22.20;95.40
44047;DHT22;29713;-33.888;151.150;2023-06-10T03:38:20;21.70;95.10
44047;DHT22;29713;-33.888;151.150;2023-06-10T03:40:48;21.80;95.90
44047;DHT22;29713;-33.888;151.150;2023-06-10T03:43:15;21.60;96.40
44047;DHT22;29713;-33.888;151.150;2023-06-10T03:45:43;21.90;98.20
44047;DHT22;29713;-33.888;151.150;2023-06-10T03:48:10;22.00;97.00
44047;DHT22;29713;-33.888;151.150;2023-06-10T03:50:37;21.90;96.20
44047;DHT22;29713;-33.888;151.150;2023-06-10T03:53:05;21.80;96.00
44047;DHT22;29713;-33.888;151.150;2023-06-10T03:55:32;21.90;98.20
44047;DHT22;29713;-33.888;151.150;2023-06-10T03:57:59;21.80;95.80
44047;DHT22;29713;-33.888;151.150;2023-06-10T04:00:27;21.50;95.70
44047;DHT22;29713;-33.888;151.150;2023-06-10T04:02:55;21.60;96.70
44047;DHT22;29713;-33.888;151.150;2023-06-10T04:05:24;21.70;97.50
44047;DHT22;29713;-33.888;151.150;2023-06-10T04:07:51;21.70;96.20
44047;DHT22;29713;-33.888;151.150;2023-06-10T04:10:19;21.50;96.90
44047;DHT22;29713;-33.888;151.150;2023-06-10T04:12:47;21.40;96.30
44047;DHT22;29713;-33.888;151.150;2023-06-10T04:15:14;21.20;95.50
44047;DHT22;29713;-33.888;151.150;2023-06-10T04:17:41;21.00;96.80
44047;DHT22;29713;-33.888;151.150;2023-06-10T04:20:09;21.00;97.50
44047;DHT22;29713;-33.888;151.150;2023-06-10T04:22:37;21.00;98.60
44047;DHT22;29713;-33.888;151.150;2023-06-10T04:25:04;20.90;97.30
44047;DHT22;29713;-33.888;151.150;2023-06-10T04:27:31;20.80;97.00
44047;DHT22;29713;-33.888;151.150;2023-06-10T04:29:59;20.70;97.40
44047;DHT22;29713;-33.888;151.150;2023-06-10T04:32:26;20.50;98.00
44047;DHT22;29713;-33.888;151.150;2023-06-10T04:34:53;20.30;97.80
44047;DHT22;29713;-33.888;151.150;2023-06-10T04:37:21;20.10;98.10
44047;DHT22;29713;-33.888;151.150;2023-06-10T04:39:54;20.20;99.30
44047;DHT22;29713;-33.888;151.150;2023-06-10T04:42:21;20.00;98.80
44047;DHT22;29713;-33.888;151.150;2023-06-10T04:44:49;19.80;98.40
44047;DHT22;29713;-33.888;151.150;2023-06-10T04:47:16;19.60;98.40
44047;DHT22;29713;-33.888;151.150;2023-06-10T04:49:43;19.60;99.20
44047;DHT22;29713;-33.888;151.150;2023-06-10T04:52:11;19.50;99.60
44047;DHT22;29713;-33.888;151.150;2023-06-10T04:54:40;19.40;99.90
44047;DHT22;29713;-33.888;151.150;2023-06-10T04:57:08;19.40;99.90
44047;DHT22;29713;-33.888;151.150;2023-06-10T04:59:38;19.30;99.90
44047;DHT22;29713;-33.888;151.150;2023-06-10T05:02:05;19.20;99.90
44047;DHT22;29713;-33.888;151.150;2023-06-10T05:04:32;19.10;99.90
44047;DHT22;29713;-33.888;151.150;2023-06-10T05:07:00;19.00;99.90
44047;DHT22;29713;-33.888;151.150;2023-06-10T05:09:27;18.90;99.90
44047;DHT22;29713;-33.888;151.150;2023-06-10T05:11:55;18.80;99.90
44047;DHT22;29713;-33.888;151.150;2023-06-10T05:14:22;18.70;99.90
44047;DHT22;29713;-33.888;151.150;2023-06-10T05:16:49;18.70;99.90
44047;DHT22;29713;-33.888;151.150;2023-06-10T05:19:17;18.60;99.90
44047;DHT22;29713;-33.888;151.150;2023-06-10T05:21:45;18.50;99.90
44047;DHT22;29713;-33.888;151.150;2023-06-10T05:24:12;18.50;99.90
44047;DHT22;29713;-33.888;151.150;2023-06-10T05:26:39;18.50;99.90
44047;DHT22;29713;-33.888;151.150;2023-06-10T05:29:08;18.50;99.90
44047;DHT22;29713;-33.888;151.150;2023-06-10T05:31:35;18.50;99.90
44047;DHT22;29713;-33.888;151.150;2023-06-10T05:34:03;18.50;99.90
44047;DHT22;29713;-33.888;151.150;2023-06-10T05:36:30;18.40;99.90
44047;DHT22;29713;-33.888;151.150;2023-06-10T05:38:59;18.40;99.90
44047;DHT22;29713;-33.888;151.150;2023-06-10T05:41:29;18.40;99.90
44047;DHT22;29713;-33.888;151.150;2023-06-10T05:43:57;18.40;99.90
44047;DHT22;29713;-33.888;151.150;2023-06-10T05:46:24;18.30;99.90
44047;DHT22;29713;-33.888;151.150;2023-06-10T05:48:51;18.30;99.90
44047;DHT22;29713;-33.888;151.150;2023-06-10T05:51:19;18.30;99.90
44047;DHT22;29713;-33.888;151.150;2023-06-10T05:53:46;18.20;99.90
44047;DHT22;29713;-33.888;151.150;2023-06-10T05:56:14;18.20;99.90
44047;DHT22;29713;-33.888;151.150;2023-06-10T05:58:42;18.20;99.90
44047;DHT22;29713;-33.888;151.150;2023-06-10T06:01:09;18.20;99.90
44047;DHT22;29713;-33.888;151.150;2023-06-10T06:03:36;18.20;99.90
44047;DHT22;29713;-33.888;151.150;2023-06-10T06:06:05;18.20;99.90
44047;DHT22;29713;-33.888;151.150;2023-06-10T06:08:33;18.20;99.90
44047;DHT22;29713;-33.888;151.150;2023-06-10T06:11:00;18.10;99.90
44047;DHT22;29713;-33.888;151.150;2023-06-10T06:13:27;18.00;99.90
44047;DHT22;29713;-33.888;151.150;2023-06-10T06:15:55;17.90;99.90
44047;DHT22;29713;-33.888;151.150;2023-06-10T06:18:22;17.80;99.90
44047;DHT22;29713;-33.888;151.150;2023-06-10T06:20:50;17.70;99.90
44047;DHT22;29713;-33.888;151.150;2023-06-10T06:23:17;17.60;99.90
44047;DHT22;29713;-33.888;151.150;2023-06-10T06:25:45;17.60;99.90
44047;DHT22;29713;-33.888;151.150;2023-06-10T06:28:15;17.50;99.90
44047;DHT22;29713;-33.888;151.150;2023-06-10T06:30:42;17.50;99.90
44047;DHT22;29713;-33.888;151.150;2023-06-10T06:33:14;17.40;99.90
44047;DHT22;29713;-33.888;151.150;2023-06-10T06:35:41;17.30;99.90
44047;DHT22;29713;-33.888;151.150;2023-06-10T06:38:08;17.20;99.90
44047;DHT22;29713;-33.888;151.150;2023-06-10T06:40:36;17.10;99.90
44047;DHT22;29713;-33.888;151.150;2023-06-10T06:43:04;17.10;99.90
44047;DHT22;29713;-33.888;151.150;2023-06-10T06:45:31;16.90;99.90
44047;DHT22;29713;-33.888;151.150;2023-06-10T06:48:04;16.80;99.90
44047;DHT22;29713;-33.888;151.150;2023-06-10T06:50:32;16.80;99.90
44047;DHT22;29713;-33.888;151.150;2023-06-10T06:52:59;16.70;99.90
44047;DHT22;29713;-33.888;151.150;2023-06-10T06:55:26;16.60;99.90
44047;DHT22;29713;-33.888;151.150;2023-06-10T06:57:54;16.50;99.90
44047;DHT22;29713;-33.888;151.150;2023-06-10T07:00:22;16.40;99.90
44047;DHT22;29713;-33.888;151.150;2023-06-10T07:02:50;16.40;99.90
44047;DHT22;29713;-33.888;151.150;2023-06-10T07:05:17;16.30;99.90
44047;DHT22;29713;-33.888;151.150;2023-06-10T07:07:44;16.30;99.90
44047;DHT22;29713;-33.888;151.150;2023-06-10T07:10:12;16.20;99.90
44047;DHT22;29713;-33.888;151.150;2023-06-10T07:12:39;16.10;99.90
44047;DHT22;29713;-33.888;151.150;2023-06-10T07:15:07;16.10;99.90
44047;DHT22;29713;-33.888;151.150;2023-06-10T07:17:34;16.10;99.90
44047;DHT22;29713;-33.888;151.150;2023-06-10T07:20:02;16.00;99.90
44047;DHT22;29713;-33.888;151.150;2023-06-10T07:22:32;16.00;99.90
44047;DHT22;29713;-33.888;151.150;2023-06-10T07:25:00;15.90;99.90
44047;DHT22;29713;-33.888;151.150;2023-06-10T07:27:27;15.90;99.90
44047;DHT22;29713;-33.888;151.150;2023-06-10T07:29:55;15.80;99.90
44047;DHT22;29713;-33.888;151.150;2023-06-10T07:32:22;15.70;99.90
44047;DHT22;29713;-33.888;151.150;2023-06-10T07:34:50;15.60;99.90
44047;DHT22;29713;-33.888;151.150;2023-06-10T07:37:18;15.60;99.90
44047;DHT22;29713;-33.888;151.150;2023-06-10T07:39:46;15.50;99.90
44047;DHT22;29713;-33.888;151.150;2023-06-10T07:42:13;15.40;99.90
44047;DHT22;29713;-33.888;151.150;2023-06-10T07:44:41;15.40;99.90
44047;DHT22;29713;-33.888;151.150;2023-06-10T07:47:08;15.30;99.90
44047;DHT22;29713;-33.888;151.150;2023-06-10T07:49:35;15.30;99.90
44047;DHT22;29713;-33.888;151.150;2023-06-10T07:52:03;15.20;99.90
44047;DHT22;29713;-33.888;151.150;2023-06-10T07:54:30;15.20;99.90
44047;DHT22;29713;-33.888;151.150;2023-06-10T07:56:57;15.20;99.90
44047;DHT22;29713;-33.888;151.150;2023-06-10T07:59:25;15.10;99.90
44047;DHT22;29713;-33.888;151.150;2023-06-10T08:01:53;15.10;99.90
44047;DHT22;29713;-33.888;151.150;2023-06-10T08:04:21;15.10;99.90
44047;DHT22;29713;-33.888;151.150;2023-06-10T08:06:48;15.00;99.90
44047;DHT22;29713;-33.888;151.150;2023-06-10T08:09:16;15.00;99.90
44047;DHT22;29713;-33.888;151.150;2023-06-10T08:11:46;15.00;99.90
44047;DHT22;29713;-33.888;151.150;2023-06-10T08:14:14;14.90;99.90
44047;DHT22;29713;-33.888;151.150;2023-06-10T08:16:42;14.90;99.90
44047;DHT22;29713;-33.888;151.150;2023-06-10T08:19:10;14.90;99.90
44047;DHT22;29713;-33.888;151.150;2023-06-10T08:21:37;14.80;99.90
44047;DHT22;29713;-33.888;151.150;2023-06-10T08:24:07;14.70;99.90
44047;DHT22;29713;-33.888;151.150;2023-06-10T08:26:34;14.70;99.90
44047;DHT22;29713;-33.888;151.150;2023-06-10T08:29:02;14.60;99.90
44047;DHT22;29713;-33.888;151.150;2023-06-10T08:31:29;14.60;99.90
44047;DHT22;29713;-33.888;151.150;2023-06-10T08:33:58;14.50;99.90
44047;DHT22;29713;-33.888;151.150;2023-06-10T08:36:27;14.50;99.90
44047;DHT22;29713;-33.888;151.150;2023-06-10T08:38:54;14.40;99.90
44047;DHT22;29713;-33.888;151.150;2023-06-10T08:41:25;14.40;99.90
44047;DHT22;29713;-33.888;151.150;2023-06-10T08:44:03;14.40;99.90
44047;DHT22;29713;-33.888;151.150;2023-06-10T08:46:35;14.40;99.90
44047;DHT22;29713;-33.888;151.150;2023-06-10T08:49:06;14.30;99.90
44047;DHT22;29713;-33.888;151.150;2023-06-10T08:51:36;14.20;99.90
44047;DHT22;29713;-33.888;151.150;2023-06-10T08:54:15;14.30;99.90
44047;DHT22;29713;-33.888;151.150;2023-06-10T08:56:50;14.20;99.90
44047;DHT22;29713;-33.888;151.150;2023-06-10T08:59:19;14.20;99.90
44047;DHT22;29713;-33.888;151.150;2023-06-10T09:01:47;14.10;99.90
44047;DHT22;29713;-33.888;151.150;2023-06-10T09:04:15;14.10;99.90
44047;DHT22;29713;-33.888;151.150;2023-06-10T09:06:45;14.10;99.90
44047;DHT22;29713;-33.888;151.150;2023-06-10T09:09:14;14.10;99.90
44047;DHT22;29713;-33.888;151.150;2023-06-10T09:11:43;14.00;99.90
44047;DHT22;29713;-33.888;151.150;2023-06-10T09:14:10;14.00;99.90
44047;DHT22;29713;-33.888;151.150;2023-06-10T09:16:40;13.90;99.90
44047;DHT22;29713;-33.888;151.150;2023-06-10T09:19:07;13.90;99.90
44047;DHT22;29713;-33.888;151.150;2023-06-10T09:21:38;13.90;99.90
44047;DHT22;29713;-33.888;151.150;2023-06-10T09:24:06;13.90;99.90
44047;DHT22;29713;-33.888;151.150;2023-06-10T09:26:33;13.80;99.90
44047;DHT22;29713;-33.888;151.150;2023-06-10T09:29:07;13.80;99.90
44047;DHT22;29713;-33.888;151.150;2023-06-10T09:31:39;13.80;99.90
44047;DHT22;29713;-33.888;151.150;2023-06-10T09:34:11;13.70;99.90
44047;DHT22;29713;-33.888;151.150;2023-06-10T09:36:39;13.70;99.90
44047;DHT22;29713;-33.888;151.150;2023-06-10T09:39:15;13.70;99.90
44047;DHT22;29713;-33.888;151.150;2023-06-10T09:41:43;13.60;99.90
44047;DHT22;29713;-33.888;151.150;2023-06-10T09:44:19;13.60;99.90
44047;DHT22;29713;-33.888;151.150;2023-06-10T09:46:49;13.50;99.90
44047;DHT22;29713;-33.888;151.150;2023-06-10T09:49:17;13.50;99.90
44047;DHT22;29713;-33.888;151.150;2023-06-10T09:51:54;13.40;99.90
44047;DHT22;29713;-33.888;151.150;2023-06-10T09:54:22;13.40;99.90
44047;DHT22;29713;-33.888;151.150;2023-06-10T09:56:53;13.30;99.90
44047;DHT22;29713;-33.888;151.150;2023-06-10T09:59:29;13.30;99.90
44047;DHT22;29713;-33.888;151.150;2023-06-10T10:01:58;13.30;99.90
44047;DHT22;29713;-33.888;151.150;2023-06-10T10:04:27;13.30;99.90
44047;DHT22;29713;-33.888;151.150;2023-06-10T10:06:55;13.20;99.90
44047;DHT22;29713;-33.888;151.150;2023-06-10T10:09:22;13.20;99.90
44047;DHT22;29713;-33.888;151.150;2023-06-10T10:11:50;13.20;99.90
44047;DHT22;29713;-33.888;151.150;2023-06-10T10:14:19;13.30;99.90
44047;DHT22;29713;-33.888;151.150;2023-06-10T10:16:47;13.20;99.90
44047;DHT22;29713;-33.888;151.150;2023-06-10T10:19:31;13.20;99.90
44047;DHT22;29713;-33.888;151.150;2023-06-10T10:22:06;13.10;99.90
44047;DHT22;29713;-33.888;151.150;2023-06-10T10:24:49;13.10;99.90
44047;DHT22;29713;-33.888;151.150;2023-06-10T10:27:44;13.00;99.90
44047;DHT22;29713;-33.888;151.150;2023-06-10T10:30:15;13.00;99.90
44047;DHT22;29713;-33.888;151.150;2023-06-10T10:33:09;13.00;99.90
44047;DHT22;29713;-33.888;151.150;2023-06-10T10:35:39;13.00;99.90
44047;DHT22;29713;-33.888;151.150;2023-06-10T10:38:06;12.90;99.90
44047;DHT22;29713;-33.888;151.150;2023-06-10T10:40:34;12.90;99.90
44047;DHT22;29713;-33.888;151.150;2023-06-10T10:43:02;12.80;99.90
44047;DHT22;29713;-33.888;151.150;2023-06-10T10:45:30;12.80;99.90
44047;DHT22;29713;-33.888;151.150;2023-06-10T10:47:57;12.80;99.90
44047;DHT22;29713;-33.888;151.150;2023-06-10T10:50:25;12.80;99.90
44047;DHT22;29713;-33.888;151.150;2023-06-10T10:53:00;12.80;99.90
44047;DHT22;29713;-33.888;151.150;2023-06-10T10:55:28;12.80;99.90
44047;DHT22;29713;-33.888;151.150;2023-06-10T10:58:07;12.80;99.90
44047;DHT22;29713;-33.888;151.150;2023-06-10T11:00:36;12.70;99.90
44047;DHT22;29713;-33.888;151.150;2023-06-10T11:03:07;12.70;99.90
44047;DHT22;29713;-33.888;151.150;2023-06-10T11:05:46;12.70;99.90
44047;DHT22;29713;-33.888;151.150;2023-06-10T11:11:26;12.60;99.90
44047;DHT22;29713;-33.888;151.150;2023-06-10T11:16:48;12.50;99.90
44047;DHT22;29713;-33.888;151.150;2023-06-10T11:19:36;12.50;99.90
44047;DHT22;29713;-33.888;151.150;2023-06-10T11:22:08;12.50;99.90
44047;DHT22;29713;-33.888;151.150;2023-06-10T11:24:36;12.50;99.90
44047;DHT22;29713;-33.888;151.150;2023-06-10T11:27:20;12.60;99.90
44047;DHT22;29713;-33.888;151.150;2023-06-10T11:32:35;12.60;99.90
44047;DHT22;29713;-33.888;151.150;2023-06-10T11:35:06;12.60;99.90
44047;DHT22;29713;-33.888;151.150;2023-06-10T11:37:34;12.60;99.90
44047;DHT22;29713;-33.888;151.150;2023-06-10T11:40:02;12.60;99.90
44047;DHT22;29713;-33.888;151.150;2023-06-10T11:42:33;12.60;99.90
44047;DHT22;29713;-33.888;151.150;2023-06-10T11:45:00;12.60;99.90
44047;DHT22;29713;-33.888;151.150;2023-06-10T11:47:29;12.60;99.90
44047;DHT22;29713;-33.888;151.150;2023-06-10T11:49:57;12.60;99.90
44047;DHT22;29713;-33.888;151.150;2023-06-10T11:52:31;12.60;99.90
44047;DHT22;29713;-33.888;151.150;2023-06-10T11:55:00;12.60;99.90
44047;DHT22;29713;-33.888;151.150;2023-06-10T11:57:27;12.60;99.90
44047;DHT22;29713;-33.888;151.150;2023-06-10T11:59:54;12.70;99.90
44047;DHT22;29713;-33.888;151.150;2023-06-10T12:02:22;12.60;99.90
44047;DHT22;29713;-33.888;151.150;2023-06-10T12:04:49;12.60;99.90
44047;DHT22;29713;-33.888;151.150;2023-06-10T12:07:20;12.60;99.90
44047;DHT22;29713;-33.888;151.150;2023-06-10T12:09:59;12.60;99.90
44047;DHT22;29713;-33.888;151.150;2023-06-10T12:12:27;12.50;99.90
44047;DHT22;29713;-33.888;151.150;2023-06-10T12:17:43;12.50;99.90
44047;DHT22;29713;-33.888;151.150;2023-06-10T12:20:26;12.50;99.90
44047;DHT22;29713;-33.888;151.150;2023-06-10T12:22:54;12.50;99.90
44047;DHT22;29713;-33.888;151.150;2023-06-10T12:25:30;12.50;99.90
44047;DHT22;29713;-33.888;151.150;2023-06-10T12:27:58;12.50;99.90
44047;DHT22;29713;-33.888;151.150;2023-06-10T12:30:27;12.50;99.90
44047;DHT22;29713;-33.888;151.150;2023-06-10T12:32:55;12.50;99.90
44047;DHT22;29713;-33.888;151.150;2023-06-10T12:35:24;12.50;99.90
44047;DHT22;29713;-33.888;151.150;2023-06-10T12:38:05;12.40;99.90
44047;DHT22;29713;-33.888;151.150;2023-06-10T12:40:36;12.40;99.90
44047;DHT22;29713;-33.888;151.150;2023-06-10T12:43:04;12.30;99.90
44047;DHT22;29713;-33.888;151.150;2023-06-10T12:45:36;12.30;99.90
44047;DHT22;29713;-33.888;151.150;2023-06-10T12:48:22;12.20;99.90
44047;DHT22;29713;-33.888;151.150;2023-06-10T12:50:57;12.20;99.90
44047;DHT22;29713;-33.888;151.150;2023-06-10T12:53:26;12.10;99.90
44047;DHT22;29713;-33.888;151.150;2023-06-10T12:55:54;12.10;99.90
44047;DHT22;29713;-33.888;151.150;2023-06-10T12:58:22;12.00;99.90
44047;DHT22;29713;-33.888;151.150;2023-06-10T13:00:49;12.00;99.90
44047;DHT22;29713;-33.888;151.150;2023-06-10T13:03:19;12.00;99.90
44047;DHT22;29713;-33.888;151.150;2023-06-10T13:05:47;12.00;99.90
44047;DHT22;29713;-33.888;151.150;2023-06-10T13:08:15;11.90;99.90
44047;DHT22;29713;-33.888;151.150;2023-06-10T13:10:45;11.90;99.90
44047;DHT22;29713;-33.888;151.150;2023-06-10T13:13:12;11.80;99.90
44047;DHT22;29713;-33.888;151.150;2023-06-10T13:15:41;11.80;99.90
44047;DHT22;29713;-33.888;151.150;2023-06-10T13:18:08;11.80;99.90
44047;DHT22;29713;-33.888;151.150;2023-06-10T13:20:35;11.80;99.90
44047;DHT22;29713;-33.888;151.150;2023-06-10T13:23:03;11.80;99.90
44047;DHT22;29713;-33.888;151.150;2023-06-10T13:25:33;11.70;99.90
44047;DHT22;29713;-33.888;151.150;2023-06-10T13:28:00;11.70;99.90
44047;DHT22;29713;-33.888;151.150;2023-06-10T13:30:27;11.80;99.90
44047;DHT22;29713;-33.888;151.150;2023-06-10T13:32:55;11.70;99.90
44047;DHT22;29713;-33.888;151.150;2023-06-10T13:35:22;11.70;99.90
44047;DHT22;29713;-33.888;151.150;2023-06-10T13:37:49;11.70;99.90
44047;DHT22;29713;-33.888;151.150;2023-06-10T13:40:17;11.70;99.90
44047;DHT22;29713;-33.888;151.150;2023-06-10T13:42:50;11.60;99.90
44047;DHT22;29713;-33.888;151.150;2023-06-10T13:45:19;11.60;99.90
44047;DHT22;29713;-33.888;151.150;2023-06-10T13:47:46;11.50;99.90
44047;DHT22;29713;-33.888;151.150;2023-06-10T13:50:14;11.50;99.90
44047;DHT22;29713;-33.888;151.150;2023-06-10T13:52:41;11.50;99.90
44047;DHT22;29713;-33.888;151.150;2023-06-10T13:55:09;11.50;99.90
44047;DHT22;29713;-33.888;151.150;2023-06-10T13:57:37;11.40;99.90
44047;DHT22;29713;-33.888;151.150;2023-06-10T14:00:05;11.30;99.90
44047;DHT22;29713;-33.888;151.150;2023-06-10T14:02:33;11.40;99.90
44047;DHT22;29713;-33.888;151.150;2023-06-10T14:05:01;11.30;99.90
44047;DHT22;29713;-33.888;151.150;2023-06-10T14:07:28;11.30;99.90
44047;DHT22;29713;-33.888;151.150;2023-06-10T14:09:55;11.30;99.90
44047;DHT22;29713;-33.888;151.150;2023-06-10T14:12:23;11.20;99.90
44047;DHT22;29713;-33.888;151.150;2023-06-10T14:14:50;11.20;99.90
44047;DHT22;29713;-33.888;151.150;2023-06-10T14:17:17;11.20;99.90
44047;DHT22;29713;-33.888;151.150;2023-06-10T14:19:45;11.30;99.90
44047;DHT22;29713;-33.888;151.150;2023-06-10T14:22:17;11.30;99.90
44047;DHT22;29713;-33.888;151.150;2023-06-10T14:24:45;11.30;99.90
44047;DHT22;29713;-33.888;151.150;2023-06-10T14:27:13;11.30;99.90
44047;DHT22;29713;-33.888;151.150;2023-06-10T14:29:41;11.30;99.90
44047;DHT22;29713;-33.888;151.150;2023-06-10T14:32:08;11.30;99.90
44047;DHT22;29713;-33.888;151.150;2023-06-10T14:34:36;11.40;99.90
44047;DHT22;29713;-33.888;151.150;2023-06-10T14:37:05;11.40;99.90
44047;DHT22;29713;-33.888;151.150;2023-06-10T14:39:36;11.40;99.90
44047;DHT22;29713;-33.888;151.150;2023-06-10T14:42:03;11.40;99.90
44047;DHT22;29713;-33.888;151.150;2023-06-10T14:44:31;11.50;99.90
44047;DHT22;29713;-33.888;151.150;2023-06-10T14:46:58;11.40;99.90
44047;DHT22;29713;-33.888;151.150;2023-06-10T14:49:26;11.40;99.90
44047;DHT22;29713;-33.888;151.150;2023-06-10T14:51:53;11.40;99.90
44047;DHT22;29713;-33.888;151.150;2023-06-10T14:54:20;11.30;99.90
44047;DHT22;29713;-33.888;151.150;2023-06-10T14:56:48;11.30;99.90
44047;DHT22;29713;-33.888;151.150;2023-06-10T14:59:15;11.20;99.90
44047;DHT22;29713;-33.888;151.150;2023-06-10T15:01:42;11.20;99.90
44047;DHT22;29713;-33.888;151.150;2023-06-10T15:04:10;11.30;99.90
44047;DHT22;29713;-33.888;151.150;2023-06-10T15:06:37;11.20;99.90
44047;DHT22;29713;-33.888;151.150;2023-06-10T15:09:05;11.20;99.90
44047;DHT22;29713;-33.888;151.150;2023-06-10T15:11:32;11.20;99.90
44047;DHT22;29713;-33.888;151.150;2023-06-10T15:13:59;11.20;99.90
44047;DHT22;29713;-33.888;151.150;2023-06-10T15:16:27;11.20;99.90